createdAt,value
2022-09-04T00:00:32.526Z,1002.56
2022-09-04T00:01:32.513Z,1002.60
2022-09-04T00:02:32.508Z,1002.56
2022-09-04T00:03:32.532Z,1002.60
2022-09-04T00:04:32.635Z,1002.63
2022-09-04T00:05:32.481Z,1002.57
2022-09-04T00:06:32.461Z,1002.57
2022-09-04T00:07:32.569Z,1002.58
2022-09-04T00:08:32.434Z,1002.55
2022-09-04T00:09:32.461Z,1002.56
2022-09-04T00:10:32.472Z,1002.56
2022-09-04T00:11:32.399Z,1002.59
2022-09-04T00:12:32.390Z,1002.60
2022-09-04T00:13:32.381Z,1002.64
2022-09-04T00:14:32.370Z,1002.63
2022-09-04T00:15:32.370Z,1002.64
2022-09-04T00:16:32.400Z,1002.63
2022-09-04T00:17:32.425Z,1002.64
2022-09-04T00:18:32.329Z,1002.67
2022-09-04T00:19:32.312Z,1002.68
2022-09-04T00:20:32.302Z,1002.66
2022-09-04T00:21:32.290Z,1002.68
2022-09-04T00:22:32.428Z,1002.66
2022-09-04T00:23:32.264Z,1002.66
2022-09-04T00:24:32.255Z,1002.69
2022-09-04T00:25:32.241Z,1002.68
2022-09-04T00:26:32.234Z,1002.68
2022-09-04T00:27:32.818Z,1002.72
2022-09-04T00:28:32.251Z,1002.73
2022-09-04T00:29:32.196Z,1002.72
2022-09-04T00:30:32.239Z,1002.74
2022-09-04T00:31:32.175Z,1002.76
2022-09-04T00:32:32.248Z,1002.74
2022-09-04T00:33:32.163Z,1002.76
2022-09-04T00:34:32.147Z,1002.73
2022-09-04T00:35:32.127Z,1002.76
2022-09-04T00:36:32.130Z,1002.79
2022-09-04T00:37:32.148Z,1002.77
2022-09-04T00:38:32.101Z,1002.77
2022-09-04T00:39:32.171Z,1002.77
2022-09-04T00:40:32.075Z,1002.78
2022-09-04T00:41:32.061Z,1002.82
2022-09-04T00:42:32.198Z,1002.78
2022-09-04T00:43:32.062Z,1002.81
2022-09-04T00:44:32.028Z,1002.81
2022-09-04T00:45:32.048Z,1002.84
2022-09-04T00:46:32.008Z,1002.81
2022-09-04T00:47:32.116Z,1002.86
2022-09-04T00:48:32.038Z,1002.91
2022-09-04T00:49:31.972Z,1002.87
2022-09-04T00:50:31.959Z,1002.92
2022-09-04T00:51:31.950Z,1002.90
2022-09-04T00:52:36.746Z,1002.88
2022-09-04T00:53:31.922Z,1002.87
2022-09-04T00:54:31.919Z,1002.90
2022-09-04T00:55:31.898Z,1002.91
2022-09-04T00:56:31.898Z,1002.88
2022-09-04T00:57:31.884Z,1002.92
2022-09-04T00:58:31.869Z,1002.92
2022-09-04T00:59:31.892Z,1002.88
2022-09-04T01:00:31.849Z,1002.91
2022-09-04T01:01:31.906Z,1002.88
2022-09-04T01:02:31.930Z,1002.89
2022-09-04T01:03:31.812Z,1002.89
2022-09-04T01:04:31.801Z,1002.93
2022-09-04T01:05:31.813Z,1002.92
2022-09-04T01:06:31.797Z,1002.95
2022-09-04T01:07:31.767Z,1002.95
2022-09-04T01:08:31.754Z,1002.93
2022-09-04T01:09:31.752Z,1002.95
2022-09-04T01:10:31.763Z,1002.96
2022-09-04T01:11:31.748Z,1003.00
2022-09-04T01:12:31.792Z,1003.01
2022-09-04T01:13:31.695Z,1002.97
2022-09-04T01:14:31.683Z,1003.03
2022-09-04T01:15:31.670Z,1003.05
2022-09-04T01:16:31.762Z,1003.05
2022-09-04T01:17:31.686Z,1003.06
2022-09-04T01:18:31.640Z,1003.07
2022-09-04T01:19:31.630Z,1003.05
2022-09-04T01:20:31.642Z,1003.04
2022-09-04T01:21:31.628Z,1003.05
2022-09-04T01:22:31.633Z,1003.09
2022-09-04T01:23:31.585Z,1003.06
2022-09-04T01:24:31.578Z,1003.06
2022-09-04T01:25:31.558Z,1003.04
2022-09-04T01:26:31.555Z,1003.10
2022-09-04T01:27:31.607Z,1003.05
2022-09-04T01:28:31.592Z,1003.09
2022-09-04T01:29:31.512Z,1003.08
2022-09-04T01:30:31.503Z,1003.10
2022-09-04T01:31:31.539Z,1003.10
2022-09-04T01:32:31.511Z,1003.10
2022-09-04T01:33:31.473Z,1003.10
2022-09-04T01:34:31.461Z,1003.06
2022-09-04T01:35:31.441Z,1003.06
2022-09-04T01:36:31.431Z,1003.02
2022-09-04T01:37:31.464Z,1002.97
2022-09-04T01:38:31.574Z,1003.03
2022-09-04T01:39:31.452Z,1002.99
2022-09-04T01:40:35.627Z,1003.01
2022-09-04T01:41:34.016Z,1003.02
2022-09-04T01:42:31.371Z,1003.04
2022-09-04T01:43:31.349Z,1003.02
2022-09-04T01:44:31.364Z,1003.02
2022-09-04T01:45:31.845Z,1003.03
2022-09-04T01:46:31.316Z,1003.01
2022-09-04T01:47:31.309Z,1002.98
2022-09-04T01:48:31.296Z,1003.00
2022-09-04T01:49:31.310Z,1003.01
2022-09-04T01:50:31.272Z,1003.02
2022-09-04T01:51:31.261Z,1003.04
2022-09-04T01:52:31.248Z,1003.03
2022-09-04T01:53:32.770Z,1003.01
2022-09-04T01:54:31.251Z,1003.03
2022-09-04T01:55:31.222Z,1003.05
2022-09-04T01:56:31.253Z,1002.99
2022-09-04T01:57:31.184Z,1003.00
2022-09-04T01:58:31.178Z,1003.00
2022-09-04T01:59:31.165Z,1003.01
2022-09-04T02:00:31.151Z,1003.00
2022-09-04T02:01:31.178Z,1002.96
2022-09-04T02:02:31.242Z,1002.97
2022-09-04T02:03:31.117Z,1003.01
2022-09-04T02:04:31.111Z,1002.98
2022-09-04T02:05:31.090Z,1003.01
2022-09-04T02:06:31.085Z,1002.99
2022-09-04T02:07:31.096Z,1003.02
2022-09-04T02:08:31.061Z,1002.99
2022-09-04T02:09:31.059Z,1003.01
2022-09-04T02:10:31.032Z,1003.01
2022-09-04T02:11:31.026Z,1003.01
2022-09-04T02:12:31.029Z,1003.01
2022-09-04T02:13:30.999Z,1002.99
2022-09-04T02:14:30.987Z,1002.98
2022-09-04T02:15:30.971Z,1003.02
2022-09-04T02:16:31.290Z,1003.07
2022-09-04T02:17:30.949Z,1003.05
2022-09-04T02:18:30.938Z,1003.07
2022-09-04T02:19:30.923Z,1003.05
2022-09-04T02:20:30.920Z,1003.07
2022-09-04T02:21:30.900Z,1003.07
2022-09-04T02:22:30.895Z,1003.08
2022-09-04T02:23:30.875Z,1003.08
2022-09-04T02:24:30.887Z,1003.10
2022-09-04T02:25:30.865Z,1003.10
2022-09-04T02:26:30.846Z,1003.09
2022-09-04T02:27:30.863Z,1003.08
2022-09-04T02:28:30.824Z,1003.07
2022-09-04T02:29:33.118Z,1003.12
2022-09-04T02:30:30.796Z,1003.13
2022-09-04T02:31:31.001Z,1003.09
2022-09-04T02:32:30.777Z,1003.09
2022-09-04T02:33:30.758Z,1003.09
2022-09-04T02:34:30.751Z,1003.07
2022-09-04T02:35:30.742Z,1003.07
2022-09-04T02:36:30.726Z,1003.06
2022-09-04T02:37:30.771Z,1003.10
2022-09-04T02:38:30.705Z,1003.06
2022-09-04T02:39:30.743Z,1003.04
2022-09-04T02:40:30.676Z,1003.05
2022-09-04T02:41:30.666Z,1003.03
2022-09-04T02:42:30.658Z,1003.05
2022-09-04T02:43:30.683Z,1003.02
2022-09-04T02:44:30.647Z,1003.01
2022-09-04T02:45:30.618Z,1003.04
2022-09-04T02:46:30.686Z,1003.03
2022-09-04T02:47:30.594Z,1003.04
2022-09-04T02:48:30.608Z,1003.03
2022-09-04T02:49:30.599Z,1003.00
2022-09-04T02:50:30.561Z,1003.05
2022-09-04T02:51:30.556Z,1003.05
2022-09-04T02:52:30.534Z,1003.02
2022-09-04T02:53:30.548Z,1003.05
2022-09-04T02:54:30.528Z,1003.06
2022-09-04T02:55:30.565Z,1003.06
2022-09-04T02:56:31.094Z,1003.07
2022-09-04T02:57:30.478Z,1003.11
2022-09-04T02:58:30.464Z,1003.07
2022-09-04T02:59:30.448Z,1003.06
2022-09-04T03:00:30.520Z,1003.06
2022-09-04T03:01:30.442Z,1003.11
2022-09-04T03:02:30.492Z,1003.06
2022-09-04T03:03:30.401Z,1003.08
2022-09-04T03:04:30.392Z,1003.11
2022-09-04T03:05:30.405Z,1003.08
2022-09-04T03:06:30.368Z,1003.14
2022-09-04T03:07:30.355Z,1003.10
2022-09-04T03:08:30.351Z,1003.17
2022-09-04T03:09:30.333Z,1003.11
2022-09-04T03:10:30.374Z,1003.14
2022-09-04T03:11:30.312Z,1003.14
2022-09-04T03:12:30.300Z,1003.14
2022-09-04T03:13:30.284Z,1003.15
2022-09-04T03:14:30.275Z,1003.13
2022-09-04T03:15:30.256Z,1003.13
2022-09-04T03:16:30.334Z,1003.13
2022-09-04T03:17:30.235Z,1003.16
2022-09-04T03:18:30.233Z,1003.15
2022-09-04T03:19:30.224Z,1003.18
2022-09-04T03:20:30.210Z,1003.21
2022-09-04T03:21:30.184Z,1003.19
2022-09-04T03:22:30.208Z,1003.18
2022-09-04T03:23:30.162Z,1003.18
2022-09-04T03:24:30.153Z,1003.16
2022-09-04T03:25:30.148Z,1003.18
2022-09-04T03:26:30.125Z,1003.16
2022-09-04T03:27:30.139Z,1003.18
2022-09-04T03:28:30.111Z,1003.21
2022-09-04T03:29:30.107Z,1003.22
2022-09-04T03:30:30.087Z,1003.19
2022-09-04T03:31:30.182Z,1003.23
2022-09-04T03:32:30.061Z,1003.22
2022-09-04T03:33:30.229Z,1003.21
2022-09-04T03:34:30.030Z,1003.19
2022-09-04T03:35:30.015Z,1003.19
2022-09-04T03:36:30.025Z,1003.18
2022-09-04T03:37:30.000Z,1003.12
2022-09-04T03:38:29.984Z,1003.18
2022-09-04T03:39:30.028Z,1003.11
2022-09-04T03:40:29.957Z,1003.11
2022-09-04T03:41:29.947Z,1003.14
2022-09-04T03:42:29.933Z,1003.19
2022-09-04T03:43:29.921Z,1003.20
2022-09-04T03:44:29.943Z,1003.16
2022-09-04T03:45:29.897Z,1003.16
2022-09-04T03:46:29.991Z,1003.17
2022-09-04T03:47:29.871Z,1003.20
2022-09-04T03:48:29.876Z,1003.19
2022-09-04T03:49:29.859Z,1003.16
2022-09-04T03:50:29.839Z,1003.21
2022-09-04T03:51:29.824Z,1003.25
2022-09-04T03:52:29.826Z,1003.27
2022-09-04T03:53:29.799Z,1003.27
2022-09-04T03:54:29.791Z,1003.30
2022-09-04T03:55:29.775Z,1003.31
2022-09-04T03:56:29.763Z,1003.33
2022-09-04T03:57:29.787Z,1003.34
2022-09-04T03:58:29.739Z,1003.33
2022-09-04T03:59:29.751Z,1003.37
2022-09-04T04:00:29.764Z,1003.36
2022-09-04T04:01:29.759Z,1003.37
2022-09-04T04:02:29.740Z,1003.40
2022-09-04T04:03:29.692Z,1003.41
2022-09-04T04:04:29.668Z,1003.41
2022-09-04T04:05:29.688Z,1003.45
2022-09-04T04:06:29.652Z,1003.46
2022-09-04T04:07:29.628Z,1003.48
2022-09-04T04:08:29.619Z,1003.47
2022-09-04T04:09:29.638Z,1003.48
2022-09-04T04:10:29.594Z,1003.49
2022-09-04T04:11:29.582Z,1003.52
2022-09-04T04:12:29.578Z,1003.50
2022-09-04T04:13:29.557Z,1003.49
2022-09-04T04:14:29.556Z,1003.51
2022-09-04T04:15:29.531Z,1003.51
2022-09-04T04:16:29.605Z,1003.49
2022-09-04T04:17:29.510Z,1003.50
2022-09-04T04:18:29.498Z,1003.53
2022-09-04T04:19:29.484Z,1003.50
2022-09-04T04:20:29.469Z,1003.56
2022-09-04T04:21:29.461Z,1003.58
2022-09-04T04:22:29.452Z,1003.59
2022-09-04T04:23:29.436Z,1003.62
2022-09-04T04:24:29.427Z,1003.57
2022-09-04T04:25:29.415Z,1003.65
2022-09-04T04:26:29.401Z,1003.64
2022-09-04T04:27:29.407Z,1003.64
2022-09-04T04:28:29.388Z,1003.67
2022-09-04T04:29:29.367Z,1003.68
2022-09-04T04:30:29.377Z,1003.63
2022-09-04T04:31:29.378Z,1003.67
2022-09-04T04:32:29.366Z,1003.63
2022-09-04T04:33:29.311Z,1003.70
2022-09-04T04:34:29.306Z,1003.66
2022-09-04T04:35:29.286Z,1003.65
2022-09-04T04:36:29.275Z,1003.70
2022-09-04T04:37:29.259Z,1003.69
2022-09-04T04:38:29.291Z,1003.69
2022-09-04T04:39:30.426Z,1003.76
2022-09-04T04:40:29.223Z,1003.76
2022-09-04T04:41:29.209Z,1003.80
2022-09-04T04:42:29.204Z,1003.81
2022-09-04T04:43:29.186Z,1003.84
2022-09-04T04:44:29.204Z,1003.84
2022-09-04T04:45:29.163Z,1003.85
2022-09-04T04:46:29.239Z,1003.85
2022-09-04T04:47:29.143Z,1003.86
2022-09-04T04:48:29.132Z,1003.90
2022-09-04T04:49:29.115Z,1003.91
2022-09-04T04:50:29.103Z,1003.88
2022-09-04T04:51:29.089Z,1003.88
2022-09-04T04:52:29.081Z,1003.94
2022-09-04T04:53:29.089Z,1003.95
2022-09-04T04:54:29.068Z,1003.95
2022-09-04T04:55:29.064Z,1003.95
2022-09-04T04:56:29.031Z,1003.98
2022-09-04T04:57:29.019Z,1003.97
2022-09-04T04:58:29.010Z,1003.97
2022-09-04T04:59:28.991Z,1003.98
2022-09-04T05:00:28.983Z,1003.96
2022-09-04T05:01:29.042Z,1003.93
2022-09-04T05:02:29.011Z,1003.95
2022-09-04T05:03:28.940Z,1003.93
2022-09-04T05:04:28.969Z,1003.96
2022-09-04T05:05:28.919Z,1003.93
2022-09-04T05:06:28.935Z,1003.97
2022-09-04T05:07:28.889Z,1003.98
2022-09-04T05:08:28.879Z,1004.00
2022-09-04T05:09:28.871Z,1004.01
2022-09-04T05:10:29.041Z,1003.97
2022-09-04T05:11:28.842Z,1004.01
2022-09-04T05:12:28.832Z,1004.00
2022-09-04T05:13:28.824Z,1004.01
2022-09-04T05:14:28.808Z,1004.02
2022-09-04T05:15:28.793Z,1004.06
2022-09-04T05:16:28.809Z,1004.05
2022-09-04T05:17:28.787Z,1004.06
2022-09-04T05:18:28.786Z,1004.04
2022-09-04T05:19:28.743Z,1004.07
2022-09-04T05:20:28.732Z,1004.06
2022-09-04T05:21:28.729Z,1004.13
2022-09-04T05:22:31.424Z,1004.13
2022-09-04T05:23:29.099Z,1004.16
2022-09-04T05:24:28.684Z,1004.20
2022-09-04T05:25:28.673Z,1004.22
2022-09-04T05:26:28.710Z,1004.25
2022-09-04T05:27:28.664Z,1004.25
2022-09-04T05:28:28.638Z,1004.26
2022-09-04T05:29:32.372Z,1004.29
2022-09-04T05:30:28.630Z,1004.30
2022-09-04T05:31:28.671Z,1004.31
2022-09-04T05:32:28.617Z,1004.30
2022-09-04T05:33:28.568Z,1004.31
2022-09-04T05:34:28.564Z,1004.36
2022-09-04T05:35:35.344Z,1004.36
2022-09-04T05:36:28.605Z,1004.36
2022-09-04T05:37:28.522Z,1004.39
2022-09-04T05:38:28.509Z,1004.35
2022-09-04T05:39:28.537Z,1004.37
2022-09-04T05:40:28.500Z,1004.33
2022-09-04T05:41:28.468Z,1004.34
2022-09-04T05:42:28.485Z,1004.37
2022-09-04T05:43:28.464Z,1004.33
2022-09-04T05:44:28.433Z,1004.37
2022-09-04T05:45:28.419Z,1004.31
2022-09-04T05:46:28.432Z,1004.33
2022-09-04T05:47:30.727Z,1004.36
2022-09-04T05:48:28.386Z,1004.33
2022-09-04T05:49:28.375Z,1004.35
2022-09-04T05:50:28.366Z,1004.28
2022-09-04T05:51:28.345Z,1004.37
2022-09-04T05:52:28.337Z,1004.32
2022-09-04T05:53:28.355Z,1004.34
2022-09-04T05:54:28.313Z,1004.34
2022-09-04T05:55:28.295Z,1004.35
2022-09-04T05:56:28.287Z,1004.43
2022-09-04T05:57:28.275Z,1004.41
2022-09-04T05:58:28.328Z,1004.38
2022-09-04T05:59:28.250Z,1004.33
2022-09-04T06:00:28.323Z,1004.37
2022-09-04T06:01:28.254Z,1004.35
2022-09-04T06:02:28.303Z,1004.32
2022-09-04T06:03:28.212Z,1004.35
2022-09-04T06:04:28.225Z,1004.30
2022-09-04T06:05:28.177Z,1004.38
2022-09-04T06:06:28.175Z,1004.35
2022-09-04T06:07:28.154Z,1004.38
2022-09-04T06:08:28.949Z,1004.35
2022-09-04T06:09:28.182Z,1004.37
2022-09-04T06:10:28.150Z,1004.37
2022-09-04T06:11:28.114Z,1004.36
2022-09-04T06:12:28.087Z,1004.37
2022-09-04T06:13:28.082Z,1004.36
2022-09-04T06:14:28.066Z,1004.39
2022-09-04T06:15:28.123Z,1004.40
2022-09-04T06:16:28.118Z,1004.43
2022-09-04T06:17:28.041Z,1004.43
2022-09-04T06:18:28.023Z,1004.45
2022-09-04T06:19:28.010Z,1004.46
2022-09-04T06:20:28.009Z,1004.47
2022-09-04T06:21:28.010Z,1004.47
2022-09-04T06:22:28.030Z,1004.51
2022-09-04T06:23:27.964Z,1004.51
2022-09-04T06:24:27.947Z,1004.57
2022-09-04T06:25:27.942Z,1004.60
2022-09-04T06:26:27.922Z,1004.56
2022-09-04T06:27:27.915Z,1004.65
2022-09-04T06:28:27.922Z,1004.65
2022-09-04T06:29:27.893Z,1004.67
2022-09-04T06:30:27.900Z,1004.66
2022-09-04T06:31:27.911Z,1004.69
2022-09-04T06:32:27.887Z,1004.66
2022-09-04T06:33:27.874Z,1004.69
2022-09-04T06:34:27.893Z,1004.68
2022-09-04T06:35:27.819Z,1004.67
2022-09-04T06:36:27.804Z,1004.68
2022-09-04T06:37:27.796Z,1004.69
2022-09-04T06:38:27.779Z,1004.69
2022-09-04T06:39:27.824Z,1004.72
2022-09-04T06:40:27.789Z,1004.73
2022-09-04T06:41:27.816Z,1004.76
2022-09-04T06:42:27.739Z,1004.75
2022-09-04T06:43:29.630Z,1004.74
2022-09-04T06:44:27.787Z,1004.73
2022-09-04T06:45:27.761Z,1004.71
2022-09-04T06:46:27.784Z,1004.75
2022-09-04T06:47:27.734Z,1004.76
2022-09-04T06:48:27.664Z,1004.78
2022-09-04T06:49:27.653Z,1004.78
2022-09-04T06:50:27.638Z,1004.79
2022-09-04T06:51:27.627Z,1004.83
2022-09-04T06:52:27.617Z,1004.80
2022-09-04T06:53:27.669Z,1004.80
2022-09-04T06:54:27.595Z,1004.86
2022-09-04T06:55:27.603Z,1004.84
2022-09-04T06:56:27.568Z,1004.82
2022-09-04T06:57:27.561Z,1004.87
2022-09-04T06:58:27.553Z,1004.82
2022-09-04T06:59:27.563Z,1004.85
2022-09-04T07:00:27.650Z,1004.84
2022-09-04T07:01:27.607Z,1004.87
2022-09-04T07:02:27.661Z,1004.84
2022-09-04T07:03:27.493Z,1004.90
2022-09-04T07:04:27.516Z,1004.89
2022-09-04T07:05:27.470Z,1004.95
2022-09-04T07:06:27.477Z,1004.94
2022-09-04T07:07:27.448Z,1004.94
2022-09-04T07:08:27.565Z,1005.00
2022-09-04T07:09:27.423Z,1004.97
2022-09-04T07:10:27.435Z,1005.00
2022-09-04T07:11:27.402Z,1005.01
2022-09-04T07:12:27.385Z,1005.00
2022-09-04T07:13:27.391Z,1005.03
2022-09-04T07:14:27.391Z,1005.01
2022-09-04T07:15:27.418Z,1004.99
2022-09-04T07:16:27.346Z,1005.02
2022-09-04T07:17:27.679Z,1005.05
2022-09-04T07:18:27.317Z,1005.04
2022-09-04T07:19:27.311Z,1005.07
2022-09-04T07:20:27.299Z,1005.04
2022-09-04T07:21:28.627Z,1005.08
2022-09-04T07:22:27.272Z,1005.02
2022-09-04T07:23:27.261Z,1005.04
2022-09-04T07:24:27.313Z,1005.02
2022-09-04T07:25:27.298Z,1005.03
2022-09-04T07:26:27.236Z,1005.05
2022-09-04T07:27:27.217Z,1005.03
2022-09-04T07:28:27.204Z,1005.07
2022-09-04T07:29:27.208Z,1005.07
2022-09-04T07:30:27.190Z,1005.05
2022-09-04T07:31:27.237Z,1005.09
2022-09-04T07:32:27.160Z,1005.07
2022-09-04T07:33:27.150Z,1005.04
2022-09-04T07:34:27.143Z,1005.07
2022-09-04T07:35:27.181Z,1005.05
2022-09-04T07:36:29.853Z,1005.05
2022-09-04T07:37:27.107Z,1005.10
2022-09-04T07:38:27.093Z,1005.10
2022-09-04T07:39:27.123Z,1005.12
2022-09-04T07:40:27.946Z,1005.14
2022-09-04T07:41:27.073Z,1005.13
2022-09-04T07:42:27.050Z,1005.15
2022-09-04T07:43:27.038Z,1005.12
2022-09-04T07:44:27.027Z,1005.12
2022-09-04T07:45:27.022Z,1005.17
2022-09-04T07:46:27.139Z,1005.16
2022-09-04T07:47:26.997Z,1005.13
2022-09-04T07:48:26.987Z,1005.12
2022-09-04T07:49:26.975Z,1005.12
2022-09-04T07:50:26.966Z,1005.08
2022-09-04T07:51:26.955Z,1005.08
2022-09-04T07:52:26.963Z,1005.10
2022-09-04T07:53:26.930Z,1005.09
2022-09-04T07:54:26.969Z,1005.10
2022-09-04T07:55:26.939Z,1005.10
2022-09-04T07:56:26.903Z,1005.13
2022-09-04T07:57:26.903Z,1005.10
2022-09-04T07:58:26.877Z,1005.13
2022-09-04T07:59:26.869Z,1005.14
2022-09-04T08:00:26.854Z,1005.16
2022-09-04T08:01:26.894Z,1005.18
2022-09-04T08:02:26.862Z,1005.16
2022-09-04T08:03:26.828Z,1005.13
2022-09-04T08:04:26.866Z,1005.21
2022-09-04T08:05:26.803Z,1005.22
2022-09-04T08:06:26.788Z,1005.22
2022-09-04T08:07:26.789Z,1005.20
2022-09-04T08:08:26.805Z,1005.19
2022-09-04T08:09:26.790Z,1005.20
2022-09-04T08:10:26.759Z,1005.21
2022-09-04T08:11:26.739Z,1005.18
2022-09-04T08:12:26.734Z,1005.15
2022-09-04T08:13:26.783Z,1005.20
2022-09-04T08:14:26.712Z,1005.25
2022-09-04T08:15:26.754Z,1005.23
2022-09-04T08:16:26.725Z,1005.20
2022-09-04T08:17:26.692Z,1005.20
2022-09-04T08:18:26.673Z,1005.25
2022-09-04T08:19:26.686Z,1005.23
2022-09-04T08:20:26.662Z,1005.26
2022-09-04T08:21:26.646Z,1005.31
2022-09-04T08:22:28.433Z,1005.34
2022-09-04T08:23:26.621Z,1005.30
2022-09-04T08:24:26.654Z,1005.32
2022-09-04T08:25:26.605Z,1005.28
2022-09-04T08:26:26.603Z,1005.36
2022-09-04T08:27:26.581Z,1005.34
2022-09-04T08:28:26.625Z,1005.26
2022-09-04T08:29:26.565Z,1005.26
2022-09-04T08:30:26.590Z,1005.24
2022-09-04T08:31:26.576Z,1005.22
2022-09-04T08:32:37.932Z,1005.30
2022-09-04T08:33:26.537Z,1005.35
2022-09-04T08:34:26.650Z,1005.30
2022-09-04T08:35:26.745Z,1005.32
2022-09-04T08:36:26.514Z,1005.36
2022-09-04T08:37:26.495Z,1005.40
2022-09-04T08:38:26.564Z,1005.44
2022-09-04T08:39:26.512Z,1005.44
2022-09-04T08:40:26.520Z,1005.47
2022-09-04T08:41:26.457Z,1005.44
2022-09-04T08:42:26.446Z,1005.43
2022-09-04T08:43:26.438Z,1005.48
2022-09-04T08:44:26.424Z,1005.44
2022-09-04T08:45:26.423Z,1005.48
2022-09-04T08:46:28.919Z,1005.51
2022-09-04T08:47:26.397Z,1005.49
2022-09-04T08:48:26.526Z,1005.50
2022-09-04T08:49:26.399Z,1005.47
2022-09-04T08:50:26.368Z,1005.45
2022-09-04T08:51:26.385Z,1005.48
2022-09-04T08:52:26.437Z,1005.42
2022-09-04T08:53:26.360Z,1005.51
2022-09-04T08:54:26.334Z,1005.49
2022-09-04T08:55:26.362Z,1005.46
2022-09-04T08:56:26.318Z,1005.43
2022-09-04T08:57:26.307Z,1005.47
2022-09-04T08:58:26.453Z,1005.46
2022-09-04T08:59:26.351Z,1005.49
2022-09-04T09:00:26.285Z,1005.48
2022-09-04T09:01:26.323Z,1005.53
2022-09-04T09:02:26.318Z,1005.49
2022-09-04T09:03:26.261Z,1005.49
2022-09-04T09:04:26.251Z,1005.52
2022-09-04T09:05:26.266Z,1005.51
2022-09-04T09:06:26.232Z,1005.51
2022-09-04T09:07:26.222Z,1005.51
2022-09-04T09:08:31.388Z,1005.47
2022-09-04T09:09:26.246Z,1005.50
2022-09-04T09:10:26.199Z,1005.55
2022-09-04T09:11:26.189Z,1005.58
2022-09-04T09:12:26.186Z,1005.56
2022-09-04T09:13:26.166Z,1005.51
2022-09-04T09:14:26.176Z,1005.50
2022-09-04T09:15:26.162Z,1005.50
2022-09-04T09:16:26.187Z,1005.52
2022-09-04T09:17:29.849Z,1005.53
2022-09-04T09:18:26.249Z,1005.55
2022-09-04T09:19:26.119Z,1005.54
2022-09-04T09:20:26.181Z,1005.53
2022-09-04T09:21:26.097Z,1005.50
2022-09-04T09:22:26.130Z,1005.55
2022-09-04T09:23:26.094Z,1005.50
2022-09-04T09:24:26.073Z,1005.49
2022-09-04T09:25:26.067Z,1005.50
2022-09-04T09:26:26.115Z,1005.48
2022-09-04T09:27:26.089Z,1005.51
2022-09-04T09:28:26.038Z,1005.48
2022-09-04T09:29:26.144Z,1005.46
2022-09-04T09:30:26.051Z,1005.42
2022-09-04T09:31:26.041Z,1005.40
2022-09-04T09:32:26.014Z,1005.38
2022-09-04T09:33:26.119Z,1005.41
2022-09-04T09:34:25.991Z,1005.36
2022-09-04T09:35:25.975Z,1005.40
2022-09-04T09:36:25.980Z,1005.37
2022-09-04T09:37:25.986Z,1005.38
2022-09-04T09:38:25.951Z,1005.34
2022-09-04T09:39:25.976Z,1005.38
2022-09-04T09:40:25.938Z,1005.38
2022-09-04T09:41:25.936Z,1005.39
2022-09-04T09:42:25.952Z,1005.38
2022-09-04T09:43:25.989Z,1005.39
2022-09-04T09:44:25.954Z,1005.42
2022-09-04T09:45:25.891Z,1005.44
2022-09-04T09:46:25.929Z,1005.46
2022-09-04T09:47:25.871Z,1005.41
2022-09-04T09:48:25.865Z,1005.45
2022-09-04T09:49:25.853Z,1005.47
2022-09-04T09:50:25.946Z,1005.48
2022-09-04T09:51:25.838Z,1005.50
2022-09-04T09:52:25.831Z,1005.45
2022-09-04T09:53:25.937Z,1005.51
2022-09-04T09:54:25.844Z,1005.54
2022-09-04T09:55:25.801Z,1005.54
2022-09-04T09:56:25.849Z,1005.53
2022-09-04T09:57:33.232Z,1005.53
2022-09-04T09:58:25.777Z,1005.56
2022-09-04T09:59:25.770Z,1005.50
2022-09-04T10:00:25.773Z,1005.52
2022-09-04T10:01:25.791Z,1005.50
2022-09-04T10:02:25.830Z,1005.50
2022-09-04T10:03:25.910Z,1005.52
2022-09-04T10:04:25.723Z,1005.50
2022-09-04T10:05:25.722Z,1005.49
2022-09-04T10:06:25.711Z,1005.47
2022-09-04T10:07:25.694Z,1005.48
2022-09-04T10:08:35.350Z,1005.52
2022-09-04T10:09:25.679Z,1005.45
2022-09-04T10:10:25.711Z,1005.50
2022-09-04T10:11:25.663Z,1005.52
2022-09-04T10:12:25.652Z,1005.49
2022-09-04T10:13:25.833Z,1005.52
2022-09-04T10:14:25.733Z,1005.52
2022-09-04T10:15:25.627Z,1005.47
2022-09-04T10:16:25.676Z,1005.49
2022-09-04T10:17:25.609Z,1005.48
2022-09-04T10:18:25.614Z,1005.52
2022-09-04T10:19:25.592Z,1005.49
2022-09-04T10:20:25.591Z,1005.54
2022-09-04T10:21:25.570Z,1005.51
2022-09-04T10:22:25.571Z,1005.52
2022-09-04T10:23:25.652Z,1005.52
2022-09-04T10:24:25.548Z,1005.51
2022-09-04T10:25:25.696Z,1005.54
2022-09-04T10:26:26.964Z,1005.51
2022-09-04T10:27:25.517Z,1005.53
2022-09-04T10:28:25.513Z,1005.48
2022-09-04T10:29:25.513Z,1005.50
2022-09-04T10:30:25.554Z,1005.52
2022-09-04T10:31:25.487Z,1005.51
2022-09-04T10:32:25.476Z,1005.53
2022-09-04T10:33:25.577Z,1005.57
2022-09-04T10:34:25.460Z,1005.56
2022-09-04T10:35:25.596Z,1005.57
2022-09-04T10:36:25.492Z,1005.57
2022-09-04T10:37:25.431Z,1005.56
2022-09-04T10:38:25.443Z,1005.54
2022-09-04T10:39:25.434Z,1005.50
2022-09-04T10:40:25.407Z,1005.52
2022-09-04T10:41:25.399Z,1005.49
2022-09-04T10:42:25.448Z,1005.50
2022-09-04T10:43:25.503Z,1005.43
2022-09-04T10:44:25.372Z,1005.46
2022-09-04T10:45:25.365Z,1005.43
2022-09-04T10:46:25.384Z,1005.44
2022-09-04T10:47:25.349Z,1005.41
2022-09-04T10:48:28.620Z,1005.40
2022-09-04T10:49:25.327Z,1005.42
2022-09-04T10:50:25.325Z,1005.38
2022-09-04T10:51:25.312Z,1005.39
2022-09-04T10:52:25.305Z,1005.42
2022-09-04T10:53:25.439Z,1005.44
2022-09-04T10:54:25.289Z,1005.44
2022-09-04T10:55:25.289Z,1005.51
2022-09-04T10:56:25.271Z,1005.45
2022-09-04T10:57:25.263Z,1005.44
2022-09-04T10:58:25.255Z,1005.43
2022-09-04T10:59:25.289Z,1005.41
2022-09-04T11:00:25.304Z,1005.46
2022-09-04T11:01:25.318Z,1005.35
2022-09-04T11:02:25.273Z,1005.41
2022-09-04T11:03:25.269Z,1005.39
2022-09-04T11:04:25.207Z,1005.37
2022-09-04T11:05:25.195Z,1005.39
2022-09-04T11:06:25.257Z,1005.42
2022-09-04T11:07:28.631Z,1005.41
2022-09-04T11:08:25.167Z,1005.42
2022-09-04T11:09:25.167Z,1005.43
2022-09-04T11:10:25.310Z,1005.43
2022-09-04T11:11:25.146Z,1005.41
2022-09-04T11:12:25.212Z,1005.40
2022-09-04T11:13:25.239Z,1005.42
2022-09-04T11:14:25.161Z,1005.37
2022-09-04T11:15:25.110Z,1005.38
2022-09-04T11:16:25.145Z,1005.37
2022-09-04T11:17:25.093Z,1005.38
2022-09-04T11:18:25.141Z,1005.37
2022-09-04T11:19:25.090Z,1005.32
2022-09-04T11:20:25.073Z,1005.34
2022-09-04T11:21:25.071Z,1005.30
2022-09-04T11:22:25.060Z,1005.29
2022-09-04T11:23:25.208Z,1005.29
2022-09-04T11:24:25.103Z,1005.29
2022-09-04T11:25:25.031Z,1005.27
2022-09-04T11:26:25.025Z,1005.29
2022-09-04T11:27:25.042Z,1005.31
2022-09-04T11:28:25.007Z,1005.32
2022-09-04T11:29:25.009Z,1005.31
2022-09-04T11:30:25.034Z,1005.29
2022-09-04T11:31:25.038Z,1005.27
2022-09-04T11:32:24.977Z,1005.25
2022-09-04T11:33:25.040Z,1005.25
2022-09-04T11:34:24.965Z,1005.25
2022-09-04T11:35:24.950Z,1005.22
2022-09-04T11:36:24.998Z,1005.22
2022-09-04T11:37:24.936Z,1005.24
2022-09-04T11:38:24.928Z,1005.19
2022-09-04T11:39:24.945Z,1005.19
2022-09-04T11:40:24.912Z,1005.18
2022-09-04T11:41:24.903Z,1005.24
2022-09-04T11:42:24.943Z,1005.21
2022-09-04T11:43:24.974Z,1005.26
2022-09-04T11:44:24.882Z,1005.22
2022-09-04T11:45:24.936Z,1005.22
2022-09-04T11:46:24.870Z,1005.23
2022-09-04T11:47:24.863Z,1005.26
2022-09-04T11:48:24.921Z,1005.23
2022-09-04T11:49:24.864Z,1005.25
2022-09-04T11:50:24.831Z,1005.25
2022-09-04T11:51:24.826Z,1005.22
2022-09-04T11:52:24.815Z,1005.24
2022-09-04T11:53:24.930Z,1005.22
2022-09-04T11:54:24.803Z,1005.21
2022-09-04T11:55:24.794Z,1005.21
2022-09-04T11:56:24.787Z,1005.19
2022-09-04T11:57:24.785Z,1005.15
2022-09-04T11:58:24.821Z,1005.16
2022-09-04T11:59:24.762Z,1005.11
2022-09-04T12:00:24.754Z,1005.13
2022-09-04T12:01:24.743Z,1005.12
2022-09-04T12:02:24.823Z,1005.09
2022-09-04T12:03:24.823Z,1005.07
2022-09-04T12:04:24.935Z,1005.05
2022-09-04T12:05:24.723Z,1005.07